createdAt,value
2022-08-07T00:04:01.026Z,6.00
2022-08-07T00:09:16.930Z,6.10
2022-08-07T00:14:31.658Z,5.10
2022-08-07T00:20:02.539Z,6.40
2022-08-07T00:25:00.573Z,6.30
2022-08-07T00:30:21.721Z,5.10
2022-08-07T00:35:31.757Z,5.50
2022-08-07T00:40:40.834Z,5.40
2022-08-07T00:45:46.598Z,5.30
2022-08-07T00:50:51.750Z,6.30
2022-08-07T00:56:02.185Z,5.60
2022-08-07T01:01:08.478Z,6.00
2022-08-07T01:06:13.849Z,5.70
2022-08-07T01:12:04.580Z,5.00
2022-08-07T01:16:49.569Z,6.10
2022-08-07T01:21:55.944Z,5.90
2022-08-07T01:27:02.293Z,5.90
2022-08-07T01:32:12.537Z,5.20
2022-08-07T01:37:19.070Z,5.60
2022-08-07T01:42:39.848Z,6.40
2022-08-07T01:48:18.893Z,5.00
2022-08-07T01:53:21.697Z,5.60
2022-08-07T01:58:49.110Z,5.10
2022-08-07T02:04:28.463Z,3.70
2022-08-07T02:09:52.745Z,6.00
2022-08-07T02:15:01.101Z,5.90
2022-08-07T02:20:17.197Z,4.90
2022-08-07T02:26:10.429Z,4.80
2022-08-07T02:30:52.820Z,4.50
2022-08-07T02:36:29.456Z,5.30
2022-08-07T02:41:25.654Z,6.50
2022-08-07T02:46:46.702Z,4.70
2022-08-07T02:52:02.009Z,5.80
2022-08-07T02:57:15.266Z,5.30
2022-08-07T03:02:20.825Z,6.40
2022-08-07T03:07:58.981Z,6.50
2022-08-07T03:12:53.488Z,4.10
2022-08-07T03:18:00.328Z,5.70
2022-08-07T03:23:05.858Z,5.40
2022-08-07T03:28:37.996Z,6.00
2022-08-07T03:33:47.374Z,5.20
2022-08-07T03:44:02.453Z,5.30
2022-08-07T03:49:10.144Z,6.00
2022-08-07T03:54:36.461Z,6.40
2022-08-07T03:59:46.579Z,6.70
2022-08-07T04:05:12.869Z,5.60
2022-08-07T04:10:19.463Z,5.50
2022-08-07T04:15:24.095Z,5.90
2022-08-07T04:20:29.071Z,5.00
2022-08-07T04:25:40.986Z,5.60
2022-08-07T04:30:56.791Z,5.60
2022-08-07T04:36:02.180Z,4.60
2022-08-07T04:41:18.226Z,5.80
2022-08-07T04:46:35.868Z,5.10
2022-08-07T04:52:03.780Z,6.90
2022-08-07T04:58:11.707Z,6.90
2022-08-07T05:04:06.724Z,11.90
2022-08-07T05:09:02.344Z,9.40
2022-08-07T05:14:55.529Z,8.60
2022-08-07T05:20:09.455Z,6.90
2022-08-07T05:25:25.637Z,4.80
2022-08-07T05:30:43.927Z,7.20
2022-08-07T05:35:55.134Z,8.50
2022-08-07T05:41:01.917Z,5.80
2022-08-07T05:46:20.345Z,5.90
2022-08-07T05:51:31.421Z,4.70
2022-08-07T05:56:40.791Z,5.60
2022-08-07T06:01:47.137Z,5.50
2022-08-07T06:06:56.701Z,4.60
2022-08-07T06:12:09.198Z,5.60
2022-08-07T06:17:16.879Z,5.20
2022-08-07T06:22:27.130Z,4.70
2022-08-07T06:27:59.657Z,3.90
2022-08-07T06:32:57.195Z,3.80
2022-08-07T06:38:02.098Z,4.00
2022-08-07T06:43:21.669Z,4.00
2022-08-07T06:48:26.722Z,4.00
2022-08-07T06:55:27.153Z,3.80
2022-08-07T07:00:11.415Z,3.40
2022-08-07T07:04:32.923Z,3.70
2022-08-07T07:09:38.894Z,3.50
2022-08-07T07:15:08.578Z,2.20
2022-08-07T07:20:58.219Z,2.10
2022-08-07T07:26:35.417Z,2.20
2022-08-07T07:31:44.490Z,2.10
2022-08-07T07:36:54.233Z,2.50
2022-08-07T07:42:12.969Z,2.40
2022-08-07T07:47:23.900Z,1.80
2022-08-07T07:52:33.402Z,2.00
2022-08-07T07:57:52.281Z,1.90
2022-08-07T08:03:16.423Z,1.90
2022-08-07T08:08:34.372Z,2.30
2022-08-07T08:13:53.340Z,2.00
2022-08-07T08:19:17.260Z,1.30
2022-08-07T08:24:57.165Z,1.70
2022-08-07T08:30:17.374Z,1.70
2022-08-07T08:35:28.804Z,2.10
2022-08-07T08:40:54.595Z,1.40
2022-08-07T08:46:22.083Z,1.50
2022-08-07T08:52:12.580Z,1.60
2022-08-07T08:57:38.941Z,2.00
2022-08-07T09:03:48.031Z,1.90
2022-08-07T09:09:13.388Z,1.30
2022-08-07T09:14:59.994Z,1.50
2022-08-07T09:21:13.824Z,1.50
2022-08-07T09:27:11.988Z,1.50
2022-08-07T09:32:26.695Z,1.40
2022-08-07T09:38:10.400Z,1.80
2022-08-07T09:44:03.565Z,1.40
2022-08-07T09:50:02.459Z,1.10
2022-08-07T09:55:28.923Z,1.00
2022-08-07T10:01:51.246Z,1.50
2022-08-07T10:07:24.168Z,1.00
2022-08-07T10:13:05.870Z,1.00
2022-08-07T10:18:39.995Z,1.20
2022-08-07T10:24:05.311Z,1.40
2022-08-07T10:29:51.731Z,1.00
2022-08-07T10:35:16.617Z,1.10
2022-08-07T10:40:53.213Z,1.00
2022-08-07T10:46:26.616Z,0.80
2022-08-07T10:52:13.497Z,0.90
2022-08-07T10:58:17.629Z,0.80
2022-08-07T11:04:05.425Z,0.80
2022-08-07T11:10:09.345Z,1.00
2022-08-07T11:15:01.229Z,0.90
2022-08-07T11:20:20.181Z,0.70
2022-08-07T11:25:50.015Z,0.80
2022-08-07T11:31:18.490Z,0.90
2022-08-07T11:36:31.240Z,0.80
2022-08-07T11:42:03.351Z,0.90
2022-08-07T11:47:39.099Z,0.90
2022-08-07T11:53:26.073Z,1.00
2022-08-07T11:58:50.795Z,1.20
2022-08-07T12:04:18.038Z,0.70
2022-08-07T12:10:02.156Z,0.90
2022-08-07T12:15:46.714Z,0.90
2022-08-07T12:20:57.012Z,1.10
2022-08-07T12:26:29.054Z,1.40
2022-08-07T12:32:03.753Z,1.30
2022-08-07T12:37:16.909Z,1.30
2022-08-07T12:42:32.069Z,1.10
2022-08-07T12:48:05.048Z,1.20
2022-08-07T12:54:02.794Z,1.10
2022-08-07T12:59:37.084Z,0.90
2022-08-07T13:06:04.610Z,1.20
2022-08-07T13:11:17.902Z,1.20
2022-08-07T13:16:46.871Z,1.30
2022-08-07T13:22:35.327Z,1.10
2022-08-07T13:28:12.864Z,1.00
2022-08-07T13:34:32.661Z,1.40
2022-08-07T13:40:34.846Z,1.50
2022-08-07T13:46:20.838Z,0.90
2022-08-07T13:56:07.465Z,1.40
2022-08-07T14:01:21.927Z,1.10
2022-08-07T14:06:35.148Z,0.70
2022-08-07T14:11:53.281Z,0.90
2022-08-07T14:17:32.052Z,1.60
2022-08-07T14:22:35.858Z,0.80
2022-08-07T14:28:21.087Z,1.30
2022-08-07T14:33:23.407Z,1.00
2022-08-07T14:38:39.306Z,0.80
2022-08-07T14:44:15.671Z,0.90
2022-08-07T14:49:57.187Z,1.10
2022-08-07T14:55:17.437Z,1.20
2022-08-07T15:00:48.809Z,0.80
2022-08-07T15:06:09.050Z,1.10
2022-08-07T15:12:08.231Z,0.80
2022-08-07T15:17:20.338Z,1.50
2022-08-07T15:22:51.602Z,1.20
2022-08-07T15:28:33.093Z,1.30
2022-08-07T15:33:44.566Z,1.50
2022-08-07T15:44:32.574Z,1.30
2022-08-07T15:56:02.125Z,1.00
2022-08-07T16:01:03.063Z,0.80
2022-08-07T16:06:10.023Z,1.10
2022-08-07T16:11:40.142Z,1.20
2022-08-07T16:18:02.313Z,0.90
2022-08-07T16:23:13.546Z,1.00
2022-08-07T16:30:08.755Z,1.30
2022-08-07T16:34:39.282Z,1.50
2022-08-07T16:40:37.232Z,1.00
2022-08-07T16:47:13.042Z,1.10
2022-08-07T16:52:51.513Z,1.30
2022-08-07T16:58:20.886Z,0.80
2022-08-07T17:04:00.370Z,1.10
2022-08-07T17:10:05.231Z,1.10
2022-08-07T17:15:04.599Z,1.80
2022-08-07T17:20:40.541Z,1.30
2022-08-07T17:26:24.249Z,1.10
2022-08-07T17:32:02.331Z,1.40
2022-08-07T17:38:11.364Z,1.10
2022-08-07T17:44:03.256Z,0.80
2022-08-07T17:50:04.052Z,0.90
2022-08-07T17:55:55.757Z,1.20
2022-08-07T18:01:36.765Z,0.90
2022-08-07T18:07:20.747Z,1.10
2022-08-07T18:13:16.403Z,1.40
2022-08-07T18:21:03.958Z,1.20
2022-08-07T18:25:23.885Z,1.40
2022-08-07T18:31:07.535Z,1.00
2022-08-07T18:36:41.093Z,1.20
2022-08-07T18:42:45.909Z,1.20
2022-08-07T18:50:31.880Z,1.30
2022-08-07T18:55:40.922Z,1.40
2022-08-07T19:02:18.107Z,1.10
2022-08-07T19:07:36.086Z,1.10
2022-08-07T19:13:44.379Z,1.40
2022-08-07T19:19:31.831Z,1.10
2022-08-07T19:24:52.197Z,1.10
2022-08-07T19:31:00.765Z,1.20
2022-08-07T19:35:33.428Z,1.70
2022-08-07T19:40:49.375Z,1.20
2022-08-07T19:46:07.575Z,1.40
2022-08-07T19:51:50.729Z,1.20
2022-08-07T19:57:51.608Z,1.60
2022-08-07T20:02:52.300Z,1.50
2022-08-07T20:08:15.455Z,1.30
2022-08-07T20:13:56.734Z,1.30
2022-08-07T20:19:10.521Z,1.60
2022-08-07T20:24:28.909Z,1.30
2022-08-07T20:29:58.400Z,1.00
2022-08-07T20:35:16.075Z,1.30
2022-08-07T20:40:31.421Z,1.50
2022-08-07T20:46:27.696Z,1.40
2022-08-07T20:51:09.374Z,1.40
2022-08-07T20:56:20.207Z,2.00
2022-08-07T21:01:45.829Z,1.80
2022-08-07T21:07:03.995Z,1.70
2022-08-07T21:12:15.081Z,1.80
2022-08-07T21:18:03.984Z,1.70
2022-08-07T21:22:55.052Z,1.60
2022-08-07T21:28:49.324Z,1.90
2022-08-07T21:34:08.851Z,2.00
2022-08-07T21:39:47.300Z,1.90
2022-08-07T21:46:08.776Z,2.00
2022-08-07T21:50:54.487Z,2.40
2022-08-07T21:56:35.862Z,2.10
2022-08-07T22:02:11.050Z,2.90
2022-08-07T22:07:35.736Z,2.00
2022-08-07T22:13:03.829Z,2.00
2022-08-07T22:18:26.314Z,2.10
2022-08-07T22:24:09.855Z,2.10
2022-08-07T22:29:48.136Z,2.00
2022-08-07T22:35:00.738Z,1.60
2022-08-07T22:40:21.511Z,2.00
2022-08-07T22:46:21.185Z,2.30
2022-08-07T22:51:43.659Z,2.10
2022-08-07T22:57:33.548Z,2.90
2022-08-07T23:03:58.919Z,2.80
2022-08-07T23:10:03.462Z,2.60
2022-08-07T23:16:05.401Z,2.50
2022-08-07T23:21:16.262Z,2.50
2022-08-07T23:26:26.671Z,2.70
2022-08-07T23:34:20.332Z,2.70
2022-08-07T23:37:32.041Z,2.80
2022-08-07T23:49:05.460Z,2.50
2022-08-07T23:54:52.118Z,3.00
